TERMINUS DAM (TRM)

Elevation: 752' · KAWEAH R basin · Operator: US Army Corps of Engineers

Provisional data, subject to change.
Query executed Saturday at 16:22:30   clock

Select a sensor type for a plot of data.
Note: Reservoir Flows are daily averages.

Earlier

Date RES ELE    STORAGE    RES CHG    TOC STO    ABV TOC    OUTFLOW    INFLOW    FNF    PPT INC    TEMP MN    TEMP MX    WINDLEN    EVP PAN   
 FEET   AF   AF   AF   AF   CFS   CFS   CFS   INCHES   DEG F   DEG F   MILES   INCHES  
09/26/2014 595.25 17148 -96 119650 -102502 41 -4 -4 0.00 16 28 98 0.19
09/27/2014 595.07 17048 -100 117120 -100072 40 -7 -7 0.00 13 25 135 0.16
09/28/2014 594.91 16959 -89 114600 -97641 39 -2 -2 0.00 16 27 152 0.19
09/29/2014 594.77 16881 -78 112070 -95189 38 2 2 0.00 15 28 99 0.20
09/30/2014 594.65 16815 -66 109460 -92645 38 9 9 0.00 16 30 0 0.20
10/01/2014 594.52 16743 -72 107030 -90287 39 7 7 0.00 15 30 89 0.20
10/02/2014 594.38 16666 -77 104590 -87924 39 5 5 0.01 18 33 95 0.22
10/03/2014 594.24 16589 -77 102150 -85561 39 5 5 0.00 19 35 101 0.24
10/04/2014 594.09 16508 -81 99718 -83210 39 2 2 0.00 19 33 99 0.21
10/05/2014 593.94 16426 -82 97282 -80856 38 2 2 0.00 19 36 105 0.25
10/06/2014 593.79 16345 -81 94845 -78500 36 0 0 0.00 19 36 111 0.25
10/07/2014 593.66 16275 -70 92408 -76133 31 1 1 0.00 20 36 102 0.24
10/08/2014 593.51 16194 -81 89972 -73778 36 -0 0 0.00 20 35 95 0.22
10/09/2014 593.33 16098 -96 87535 -71437 41 -3 -3 0.00 19 34 113 0.23
10/10/2014 593.15 16002 -96 85099 -69097 41 -3 -3 0.00 17 31 101 0.20
10/11/2014 592.98 15912 -90 82662 -66750 41 -1 -1 0.00 17 32 92 0.20
10/12/2014 592.82 15827 -85 80225 -64398 40 2 2 0.00 18 32 102 0.21
10/13/2014 592.64 15733 -94 77789 -62056 40 -3 -3 0.00 17 34 98 0.21
10/14/2014 592.45 15633 -100 75352 -59719 41 -5 -5 0.00 19 35 95 0.22
10/15/2014 592.28 15545 -88 72916 -72899959 42 0 0 0.00 17 26 71 0.14
10/16/2014 592.11 15457 -88 70479 -55022 40 -1 -1 0.00 15 27 84 0.15
10/17/2014 591.93 15364 -93 68042 -52678 39 -5 -5 0.00 15 26 85 0.14
10/18/2014 591.77 15281 -83 65606 -50325 40 1 1 0.00 16 28 77 0.16
10/19/2014 591.60 15194 -87 63169 -47975 40 0 0 0.00 14 29 99 0.17
10/20/2014 591.42 15103 -91 60732 -45629 41 -2 -2 0.00 15 28 91 0.16
10/21/2014 591.25 15016 -87 58296 -43280 41 -1 -1 0.00 12 24 56 0.12
10/22/2014 591.08 14931 -85 55859 -40928 41 1 1 0.00 13 27 76 0.14
10/23/2014 590.91 14845 -86 53423 -38578 41 0 0 0.00 13 27 89 0.15
10/24/2014 590.73 14755 -90 50986 -36231 40 -2 -- 0.00 13 32 105 0.19
10/25/2014 -- -- -- -- -- -- -- -- -- -- -- -- --

Later | Latest

Warning! This data is preliminary and subject to revision.

Show TRM Map | Plot TRM Data | 1 Month TRM Data | Real-Time TRM Data | TRM Info